Time;durP1;ratioP1;P1;durP2;ratioP2;P2;SDS_P1;SDS_P2;PMS_P1;PMS_P2;Temp;Humidity;BMP_temperature;BMP_pressure;BME280_temperature;BME280_humidity;BME280_pressure;Samples;Min_cycle;Max_cycle;Signal;HPM_P1;HPM_P2
2023/04/19 00:02:15;;;;;;;;;;;11.00;79.40;;;;;;4967658;28;20387;-88
2023/04/19 00:04:40;;;;;;;;;;;10.90;79.50;;;;;;4980408;28;20009;-88
2023/04/19 00:07:06;;;;;;;;;;;10.90;79.80;;;;;;4991009;28;20012;-87
2023/04/19 00:09:31;;;;;;;;;;;10.90;79.90;;;;;;4974899;28;19914;-88
2023/04/19 00:11:57;;;;;;;;;;;10.90;80.00;;;;;;4974147;28;19914;-87
2023/04/19 00:14:22;;;;;;;;;;;10.90;80.00;;;;;;4987045;28;19914;-87
2023/04/19 00:16:48;;;;;;;;;;;10.90;80.00;;;;;;4967838;28;19918;-88
2023/04/19 00:19:13;;;;;;;;;;;10.80;80.10;;;;;;4974095;28;19986;-88
2023/04/19 00:21:39;;;;;;;;;;;10.90;80.10;;;;;;4965145;28;19960;-87
2023/04/19 00:24:04;;;;;;;;;;;10.90;79.90;;;;;;4986566;28;19914;-87
2023/04/19 00:26:30;;;;;;;;;;;10.90;79.70;;;;;;4965793;28;19933;-88
2023/04/19 00:28:55;;;;;;;;;;;10.80;80.00;;;;;;4992024;28;19921;-87
2023/04/19 00:31:20;;;;;;;;;;;10.80;80.10;;;;;;4991095;28;19914;-88
2023/04/19 00:33:46;;;;;;;;;;;10.80;79.80;;;;;;4967830;28;20051;-88
2023/04/19 00:36:11;;;;;;;;;;;10.80;80.10;;;;;;4970996;28;19913;-88
2023/04/19 00:38:37;;;;;;;;;;;10.80;80.40;;;;;;4985562;28;20283;-88
2023/04/19 00:41:02;;;;;;;;;;;10.70;80.30;;;;;;4973958;28;20350;-88
2023/04/19 00:43:27;;;;;;;;;;;10.60;80.30;;;;;;4972597;28;19913;-88
2023/04/19 00:45:53;;;;;;;;;;;10.60;80.30;;;;;;4969970;28;19917;-87
2023/04/19 00:48:18;;;;;;;;;;;10.60;80.70;;;;;;4990157;28;19909;-87
2023/04/19 00:50:44;;;;;;;;;;;10.60;80.40;;;;;;4985048;28;19997;-87
2023/04/19 00:53:09;;;;;;;;;;;10.50;80.80;;;;;;4965418;28;20372;-87
2023/04/19 00:55:37;;;;;;;;;;;10.40;80.90;;;;;;4977599;28;19914;-88
2023/04/19 00:58:04;;;;;;;;;;;10.50;80.60;;;;;;4970891;28;19918;-87
2023/04/19 01:00:30;;;;;;;;;;;10.60;80.50;;;;;;4972404;28;19929;-88
2023/04/19 01:02:55;;;;;;;;;;;10.60;80.30;;;;;;4975032;28;19914;-88
2023/04/19 01:05:21;;;;;;;;;;;10.60;80.20;;;;;;4972635;28;20292;-88
2023/04/19 01:07:46;;;;;;;;;;;10.60;80.10;;;;;;4966396;28;19914;-88
2023/04/19 01:10:12;;;;;;;;;;;10.60;80.10;;;;;;4985582;28;20004;-87
2023/04/19 01:12:37;;;;;;;;;;;10.60;80.10;;;;;;4973745;28;19918;-87
2023/04/19 01:15:03;;;;;;;;;;;10.70;80.10;;;;;;4982720;28;19918;-87
2023/04/19 01:17:30;;;;;;;;;;;10.80;79.30;;;;;;4968752;28;20288;-87
2023/04/19 01:20:02;;;;;;;;;;;10.80;79.10;;;;;;4984223;28;20042;-87
2023/04/19 01:22:29;;;;;;;;;;;10.90;78.80;;;;;;4966209;28;19968;-88
2023/04/19 01:24:54;;;;;;;;;;;10.80;78.70;;;;;;4973240;28;19914;-87
2023/04/19 01:27:20;;;;;;;;;;;10.90;78.90;;;;;;4982202;28;19928;-87
2023/04/19 01:29:45;;;;;;;;;;;10.80;78.70;;;;;;4971943;28;19914;-87
2023/04/19 01:32:13;;;;;;;;;;;10.90;78.50;;;;;;4987984;28;20009;-88
2023/04/19 01:34:39;;;;;;;;;;;10.90;78.60;;;;;;4966015;28;20474;-88
2023/04/19 01:37:04;;;;;;;;;;;10.90;78.10;;;;;;4970976;28;19967;-87
2023/04/19 01:39:30;;;;;;;;;;;10.90;78.30;;;;;;4967649;28;20295;-87
2023/04/19 01:41:55;;;;;;;;;;;10.90;78.60;;;;;;4973833;28;20443;-88
2023/04/19 01:44:21;;;;;;;;;;;11.00;77.80;;;;;;4983776;28;20272;-88
2023/04/19 01:46:47;;;;;;;;;;;10.90;77.50;;;;;;4992655;28;20368;-87
2023/04/19 01:49:12;;;;;;;;;;;10.90;77.10;;;;;;4987316;28;19972;-88
2023/04/19 01:51:38;;;;;;;;;;;10.80;77.20;;;;;;4971408;28;20020;-88
2023/04/19 01:54:03;;;;;;;;;;;10.80;77.40;;;;;;4974790;28;19937;-87
2023/04/19 01:56:29;;;;;;;;;;;11.10;76.40;;;;;;4974370;28;19925;-87
2023/04/19 01:58:54;;;;;;;;;;;11.00;76.40;;;;;;4974927;28;19968;-87
2023/04/19 02:01:20;;;;;;;;;;;11.00;76.30;;;;;;4989261;28;20302;-88
2023/04/19 02:03:45;;;;;;;;;;;11.00;76.20;;;;;;4977555;28;19913;-88
2023/04/19 02:06:12;;;;;;;;;;;11.00;76.00;;;;;;4979926;28;19925;-88
2023/04/19 02:08:37;;;;;;;;;;;11.00;76.00;;;;;;4991705;28;19914;-88
2023/04/19 02:11:07;;;;;;;;;;;11.00;75.60;;;;;;4970298;28;20060;-88
2023/04/19 02:13:33;;;;;;;;;;;10.90;75.60;;;;;;4976081;28;20299;-88
2023/04/19 02:16:00;;;;;;;;;;;10.90;75.20;;;;;;4975789;28;19920;-87
2023/04/19 02:18:25;;;;;;;;;;;10.90;74.80;;;;;;4975541;28;19914;-88
2023/04/19 02:20:51;;;;;;;;;;;10.90;74.80;;;;;;4976201;28;19968;-88
2023/04/19 02:23:16;;;;;;;;;;;10.90;75.00;;;;;;4986178;28;20012;-88
2023/04/19 02:25:42;;;;;;;;;;;10.80;74.60;;;;;;4975072;28;20068;-88
2023/04/19 02:28:07;;;;;;;;;;;10.90;73.80;;;;;;4970408;28;19914;-87
2023/04/19 02:30:32;;;;;;;;;;;10.90;74.00;;;;;;4988754;28;19913;-88
2023/04/19 02:32:58;;;;;;;;;;;10.80;74.20;;;;;;4968743;28;19921;-88
2023/04/19 02:35:23;;;;;;;;;;;10.80;74.10;;;;;;4992283;28;19938;-88
2023/04/19 02:37:49;;;;;;;;;;;10.70;74.10;;;;;;4972468;28;19913;-88
2023/04/19 02:40:14;;;;;;;;;;;10.70;73.70;;;;;;4970269;28;19944;-88
2023/04/19 02:42:40;;;;;;;;;;;10.90;73.40;;;;;;4993368;28;19924;-87
2023/04/19 02:45:06;;;;;;;;;;;10.80;73.40;;;;;;4981460;28;20248;-88
2023/04/19 02:47:31;;;;;;;;;;;10.80;73.80;;;;;;4988845;28;20483;-87
2023/04/19 02:49:56;;;;;;;;;;;10.60;73.70;;;;;;4968695;28;19922;-87
2023/04/19 02:52:22;;;;;;;;;;;10.80;72.70;;;;;;4982314;28;19922;-88
2023/04/19 02:54:47;;;;;;;;;;;10.70;72.70;;;;;;4974012;28;19914;-88
2023/04/19 02:57:13;;;;;;;;;;;10.80;72.60;;;;;;4973091;28;20004;-88
2023/04/19 02:59:38;;;;;;;;;;;10.60;72.90;;;;;;5056326;22;20072;-85
2023/04/19 03:02:04;;;;;;;;;;;10.60;73.20;;;;;;5055631;28;19920;-85
2023/04/19 03:04:30;;;;;;;;;;;10.60;73.10;;;;;;5055059;28;19921;-86
2023/04/19 03:06:55;;;;;;;;;;;10.70;72.40;;;;;;5033412;28;19962;-83
2023/04/19 03:09:21;;;;;;;;;;;10.60;72.10;;;;;;5040720;28;19928;-85
2023/04/19 03:11:46;;;;;;;;;;;10.60;72.20;;;;;;5024824;28;19919;-84
2023/04/19 03:14:11;;;;;;;;;;;10.60;72.00;;;;;;5037886;28;20265;-84
2023/04/19 03:16:37;;;;;;;;;;;10.60;71.80;;;;;;5030042;28;19917;-85
2023/04/19 03:19:02;;;;;;;;;;;10.50;71.70;;;;;;5024560;28;19960;-85
2023/04/19 03:21:28;;;;;;;;;;;10.60;71.40;;;;;;5041003;28;20032;-84
2023/04/19 03:23:54;;;;;;;;;;;10.60;71.00;;;;;;5044836;28;19988;-85
2023/04/19 03:26:19;;;;;;;;;;;10.50;71.40;;;;;;5038331;28;19917;-85
2023/04/19 03:28:45;;;;;;;;;;;10.50;71.00;;;;;;5032583;28;19913;-84
2023/04/19 03:31:10;;;;;;;;;;;10.50;71.40;;;;;;5016631;28;20500;-85
2023/04/19 03:33:36;;;;;;;;;;;10.40;71.60;;;;;;5025889;28;19967;-85
2023/04/19 03:36:01;;;;;;;;;;;10.50;71.20;;;;;;5041601;28;19924;-85
2023/04/19 03:38:27;;;;;;;;;;;10.70;70.40;;;;;;5044302;28;20484;-85
2023/04/19 03:40:54;;;;;;;;;;;10.60;69.70;;;;;;5017070;28;19913;-84
2023/04/19 03:43:21;;;;;;;;;;;10.50;70.50;;;;;;5003102;28;20011;-84
2023/04/19 03:45:46;;;;;;;;;;;10.40;69.50;;;;;;5016209;28;20385;-85
2023/04/19 03:48:11;;;;;;;;;;;10.50;68.90;;;;;;5026962;28;19916;-85
2023/04/19 03:50:37;;;;;;;;;;;10.40;68.30;;;;;;5027931;28;19916;-85
2023/04/19 03:53:04;;;;;;;;;;;10.10;68.90;;;;;;5036934;28;19929;-85
2023/04/19 03:55:29;;;;;;;;;;;10.20;68.40;;;;;;5035883;28;20353;-84
2023/04/19 03:57:55;;;;;;;;;;;10.20;68.50;;;;;;5035473;28;19920;-84
2023/04/19 04:00:20;;;;;;;;;;;10.00;69.10;;;;;;5040013;28;19964;-85
2023/04/19 04:02:46;;;;;;;;;;;10.00;68.90;;;;;;5023338;28;19936;-85
2023/04/19 04:05:11;;;;;;;;;;;10.00;68.60;;;;;;5027626;28;19913;-85
2023/04/19 04:07:39;;;;;;;;;;;10.10;68.60;;;;;;5042627;28;20400;-84
2023/04/19 04:10:05;;;;;;;;;;;10.20;67.80;;;;;;5019565;28;19924;-85
2023/04/19 04:12:31;;;;;;;;;;;10.20;67.80;;;;;;5030489;28;20364;-84
2023/04/19 04:14:56;;;;;;;;;;;10.30;66.80;;;;;;5045683;28;19921;-84
2023/04/19 04:17:23;;;;;;;;;;;10.20;67.20;;;;;;5035345;28;19923;-85
2023/04/19 04:19:48;;;;;;;;;;;10.30;66.20;;;;;;5026730;28;19909;-85
2023/04/19 04:22:15;;;;;;;;;;;10.00;67.00;;;;;;5026051;28;19959;-87
2023/04/19 04:24:40;;;;;;;;;;;10.00;66.90;;;;;;5021288;28;19909;-86
2023/04/19 04:27:08;;;;;;;;;;;10.10;66.50;;;;;;5018451;28;19918;-86
2023/04/19 04:29:37;;;;;;;;;;;10.00;67.10;;;;;;5022324;28;19960;-85
2023/04/19 04:32:03;;;;;;;;;;;10.00;66.30;;;;;;5030214;28;20003;-86
2023/04/19 04:34:29;;;;;;;;;;;9.90;66.50;;;;;;5015955;28;19909;-87
2023/04/19 04:36:55;;;;;;;;;;;9.80;66.80;;;;;;5027271;28;19913;-86
2023/04/19 04:39:20;;;;;;;;;;;9.70;67.20;;;;;;5035443;28;20424;-86
2023/04/19 04:41:47;;;;;;;;;;;9.80;67.40;;;;;;5028221;28;19917;-85
2023/04/19 04:44:14;;;;;;;;;;;9.90;66.60;;;;;;5014471;28;20356;-86
2023/04/19 04:46:39;;;;;;;;;;;9.90;66.60;;;;;;5024848;28;20008;-85
2023/04/19 04:49:06;;;;;;;;;;;9.80;67.40;;;;;;5025979;28;19959;-86
2023/04/19 04:51:31;;;;;;;;;;;9.90;67.00;;;;;;5019224;28;19920;-85
2023/04/19 04:54:05;;;;;;;;;;;9.90;67.10;;;;;;5018890;28;20260;-82
2023/04/19 04:56:30;;;;;;;;;;;9.90;67.10;;;;;;5029843;28;19909;-87
2023/04/19 04:58:56;;;;;;;;;;;9.90;67.40;;;;;;5009670;28;20433;-86
2023/04/19 05:01:22;;;;;;;;;;;9.80;68.10;;;;;;5016948;28;19917;-85
2023/04/19 05:03:48;;;;;;;;;;;9.80;68.30;;;;;;5030755;28;19943;-86
2023/04/19 05:06:14;;;;;;;;;;;9.90;67.50;;;;;;5014989;28;20386;-91
2023/04/19 05:08:39;;;;;;;;;;;10.00;68.00;;;;;;5009493;28;20368;-87
2023/04/19 05:11:05;;;;;;;;;;;9.90;68.40;;;;;;5005044;28;19913;-86
2023/04/19 05:13:30;;;;;;;;;;;9.90;67.90;;;;;;5008436;28;19913;-87
2023/04/19 05:15:56;;;;;;;;;;;9.90;68.30;;;;;;5010873;28;20281;-88
2023/04/19 05:18:35;;;;;;;;;;;9.70;68.90;;;;;;5007154;28;19956;-87
2023/04/19 05:21:00;;;;;;;;;;;9.80;68.40;;;;;;5014025;28;19924;-88
2023/04/19 05:23:26;;;;;;;;;;;9.70;68.50;;;;;;5031370;28;19922;-86
2023/04/19 05:25:51;;;;;;;;;;;9.50;69.20;;;;;;5022044;28;20371;-89
2023/04/19 05:28:46;;;;;;;;;;;9.40;69.60;;;;;;5023508;28;19920;-91
2023/04/19 05:31:28;;;;;;;;;;;9.50;69.50;;;;;;5030935;28;19948;-90
2023/04/19 05:33:53;;;;;;;;;;;9.30;69.90;;;;;;5015997;28;19913;-90
2023/04/19 05:36:19;;;;;;;;;;;9.40;69.30;;;;;;5015137;28;19915;-88
2023/04/19 05:38:44;;;;;;;;;;;9.30;68.60;;;;;;5020733;28;19967;-88
2023/04/19 05:41:14;;;;;;;;;;;9.30;69.00;;;;;;5012304;28;19921;-88
2023/04/19 05:43:40;;;;;;;;;;;9.20;69.30;;;;;;5011492;28;19952;-89
2023/04/19 05:46:05;;;;;;;;;;;9.20;67.90;;;;;;5017391;28;19960;-91
2023/04/19 05:48:34;;;;;;;;;;;9.20;66.50;;;;;;5010107;28;19922;-89
2023/04/19 05:51:37;;;;;;;;;;;9.30;64.70;;;;;;5017338;28;19913;-93
2023/04/19 05:54:33;;;;;;;;;;;9.40;64.50;;;;;;5033493;28;20026;-91
2023/04/19 06:02:54;;;;;;;;;;;9.20;61.30;;;;;;5033901;28;19945;-79
2023/04/19 06:05:19;;;;;;;;;;;9.20;60.70;;;;;;5016199;28;19929;-81
2023/04/19 06:07:45;;;;;;;;;;;9.30;60.20;;;;;;5014747;28;19929;-80
2023/04/19 06:10:10;;;;;;;;;;;9.40;59.40;;;;;;5036274;28;19913;-79
2023/04/19 06:12:36;;;;;;;;;;;9.40;59.10;;;;;;5030922;28;19980;-81
2023/04/19 06:15:01;;;;;;;;;;;9.30;60.50;;;;;;5026664;28;19913;-80
2023/04/19 06:17:27;;;;;;;;;;;9.50;58.20;;;;;;5036257;28;19914;-81
2023/04/19 06:19:53;;;;;;;;;;;9.50;58.00;;;;;;5024976;28;19921;-79
2023/04/19 06:22:18;;;;;;;;;;;9.30;58.60;;;;;;5028732;28;19913;-82
2023/04/19 06:24:47;;;;;;;;;;;9.50;58.20;;;;;;5041009;28;20324;-83
2023/04/19 06:27:14;;;;;;;;;;;9.40;58.20;;;;;;5021713;28;19921;-83
2023/04/19 06:29:39;;;;;;;;;;;9.50;56.60;;;;;;5037335;28;19917;-83
2023/04/19 06:32:05;;;;;;;;;;;9.60;57.60;;;;;;5017186;28;19909;-82
2023/04/19 06:34:30;;;;;;;;;;;9.60;57.60;;;;;;5019375;28;20258;-83
2023/04/19 06:36:56;;;;;;;;;;;9.60;57.90;;;;;;5020442;28;19909;-82
2023/04/19 06:39:21;;;;;;;;;;;9.60;57.30;;;;;;5044078;28;19913;-80
2023/04/19 06:41:47;;;;;;;;;;;9.50;57.30;;;;;;5023097;28;19909;-82
2023/04/19 06:44:12;;;;;;;;;;;9.50;55.70;;;;;;5039871;28;19916;-80
2023/04/19 06:46:38;;;;;;;;;;;9.20;56.20;;;;;;5040424;28;20014;-79
2023/04/19 06:49:04;;;;;;;;;;;9.20;57.80;;;;;;5034121;28;20404;-82
2023/04/19 06:51:32;;;;;;;;;;;9.30;56.70;;;;;;5052065;28;19949;-79
2023/04/19 06:53:57;;;;;;;;;;;9.50;56.00;;;;;;5020172;28;19944;-82
2023/04/19 06:56:44;;;;;;;;;;;9.50;57.80;;;;;;5034775;28;19913;-82
2023/04/19 06:59:13;;;;;;;;;;;9.60;57.20;;;;;;5022566;28;19919;-81
2023/04/19 07:01:39;;;;;;;;;;;9.60;57.50;;;;;;5023788;28;19932;-82
2023/04/19 07:04:07;;;;;;;;;;;9.60;57.00;;;;;;5027742;28;19917;-82
2023/04/19 07:06:36;;;;;;;;;;;9.60;57.80;;;;;;5024459;28;19984;-78
2023/04/19 07:09:03;;;;;;;;;;;9.60;56.00;;;;;;5022295;28;19935;-84
2023/04/19 07:11:28;;;;;;;;;;;9.60;56.40;;;;;;5021157;28;19933;-81
2023/04/19 07:13:54;;;;;;;;;;;9.60;55.90;;;;;;5016825;28;19913;-83
2023/04/19 07:16:19;;;;;;;;;;;9.60;55.30;;;;;;5046108;28;19913;-84
2023/04/19 07:18:45;;;;;;;;;;;9.60;55.50;;;;;;5041230;28;20289;-80
2023/04/19 07:21:10;;;;;;;;;;;9.70;54.10;;;;;;5015548;28;19946;-81
2023/04/19 07:23:36;;;;;;;;;;;9.80;54.80;;;;;;5034807;28;20359;-84
2023/04/19 07:26:02;;;;;;;;;;;9.70;54.30;;;;;;5015943;28;19928;-83
2023/04/19 07:28:27;;;;;;;;;;;9.70;54.60;;;;;;5016901;28;19955;-85
2023/04/19 07:30:53;;;;;;;;;;;9.80;54.00;;;;;;5032542;28;20368;-84
2023/04/19 07:33:23;;;;;;;;;;;9.60;54.40;;;;;;5018326;28;19912;-89
2023/04/19 07:35:49;;;;;;;;;;;9.70;52.30;;;;;;5013741;28;20303;-83
2023/04/19 07:38:14;;;;;;;;;;;9.70;55.60;;;;;;5033505;28;19920;-85
2023/04/19 07:40:40;;;;;;;;;;;9.70;54.40;;;;;;5013034;28;19924;-83
2023/04/19 07:43:05;;;;;;;;;;;9.70;54.60;;;;;;5027797;28;20405;-82
2023/04/19 07:45:31;;;;;;;;;;;9.80;54.80;;;;;;5020947;28;20379;-83
2023/04/19 07:47:57;;;;;;;;;;;9.80;53.90;;;;;;5033648;28;19909;-81
2023/04/19 07:50:23;;;;;;;;;;;9.80;54.60;;;;;;5011976;28;19953;-82
2023/04/19 07:52:49;;;;;;;;;;;9.80;54.50;;;;;;5019239;28;20022;-85
2023/04/19 07:55:15;;;;;;;;;;;9.90;51.80;;;;;;5015854;28;20365;-85
2023/04/19 07:57:44;;;;;;;;;;;9.90;51.80;;;;;;5015996;28;20063;-84
2023/04/19 08:00:10;;;;;;;;;;;10.00;51.70;;;;;;5016417;28;19915;-84
2023/04/19 08:02:36;;;;;;;;;;;9.80;52.70;;;;;;5029440;28;19916;-82
2023/04/19 08:05:02;;;;;;;;;;;9.80;56.50;;;;;;5015185;28;19928;-83
2023/04/19 08:07:27;;;;;;;;;;;9.90;56.60;;;;;;5016058;28;19913;-84
2023/04/19 08:09:53;;;;;;;;;;;10.00;53.00;;;;;;5033535;28;19915;-82
2023/04/19 08:12:18;;;;;;;;;;;10.00;53.00;;;;;;5025786;28;20425;-84
2023/04/19 08:14:45;;;;;;;;;;;10.00;54.10;;;;;;5052913;28;19915;-83
2023/04/19 08:17:10;;;;;;;;;;;10.10;53.90;;;;;;5052239;28;19908;-84
2023/04/19 08:19:36;;;;;;;;;;;10.10;52.70;;;;;;5052001;28;20411;-84
2023/04/19 08:22:03;;;;;;;;;;;10.10;52.00;;;;;;5040001;28;20399;-83
2023/04/19 08:24:30;;;;;;;;;;;10.00;52.80;;;;;;5038574;28;19913;-82
2023/04/19 08:26:55;;;;;;;;;;;10.10;52.00;;;;;;5016672;28;20006;-82
2023/04/19 08:29:21;;;;;;;;;;;10.00;50.40;;;;;;5041855;28;19987;-82
2023/04/19 08:31:46;;;;;;;;;;;10.00;52.30;;;;;;5037055;28;19955;-84
2023/04/19 08:34:12;;;;;;;;;;;10.10;52.00;;;;;;5017114;28;19909;-81
2023/04/19 08:36:37;;;;;;;;;;;10.20;51.60;;;;;;5018627;28;19913;-83
2023/04/19 08:39:03;;;;;;;;;;;10.10;51.00;;;;;;5034690;28;19913;-82
2023/04/19 08:41:31;;;;;;;;;;;10.00;51.70;;;;;;5047289;28;19987;-83
2023/04/19 08:43:57;;;;;;;;;;;10.00;50.80;;;;;;5025799;28;19915;-83
2023/04/19 08:46:23;;;;;;;;;;;10.00;51.40;;;;;;5037425;28;20371;-83
2023/04/19 08:48:49;;;;;;;;;;;10.00;52.50;;;;;;5040449;28;19914;-85
2023/04/19 08:51:16;;;;;;;;;;;10.10;51.00;;;;;;5001799;28;19921;-86
2023/04/19 08:53:42;;;;;;;;;;;10.30;49.60;;;;;;5018027;28;19909;-85
2023/04/19 08:56:09;;;;;;;;;;;10.10;48.60;;;;;;5036273;28;19909;-84
2023/04/19 08:58:34;;;;;;;;;;;10.20;50.10;;;;;;5041800;22;19930;-84
2023/04/19 09:01:05;;;;;;;;;;;10.30;50.60;;;;;;4969568;28;20400;-83
2023/04/19 09:03:31;;;;;;;;;;;10.30;50.20;;;;;;4958201;28;20137;-85
2023/04/19 09:05:59;;;;;;;;;;;10.20;48.30;;;;;;4961796;28;19924;-85
2023/04/19 09:08:26;;;;;;;;;;;10.30;50.50;;;;;;4974472;28;19914;-85
2023/04/19 09:10:56;;;;;;;;;;;10.30;49.30;;;;;;4955269;28;19930;-85
2023/04/19 09:13:22;;;;;;;;;;;10.40;50.10;;;;;;4968834;28;19950;-86
2023/04/19 09:15:48;;;;;;;;;;;10.40;49.30;;;;;;4958852;28;20596;-87
2023/04/19 09:18:13;;;;;;;;;;;10.40;49.40;;;;;;4958050;28;19918;-85
2023/04/19 09:20:40;;;;;;;;;;;10.60;50.80;;;;;;4970486;28;19921;-86
2023/04/19 09:23:07;;;;;;;;;;;10.60;48.00;;;;;;4971995;28;19914;-86
2023/04/19 09:25:32;;;;;;;;;;;10.80;48.00;;;;;;4959988;28;20028;-85
2023/04/19 09:28:08;;;;;;;;;;;10.90;47.90;;;;;;4939395;28;20009;-86
2023/04/19 09:30:34;;;;;;;;;;;10.90;50.30;;;;;;4969934;28;19924;-86
2023/04/19 09:32:59;;;;;;;;;;;10.90;48.80;;;;;;4971341;28;19952;-84
2023/04/19 09:35:46;;;;;;;;;;;10.90;50.40;;;;;;4973064;28;19999;-86
2023/04/19 09:38:11;;;;;;;;;;;10.80;45.40;;;;;;4977710;28;19949;-83
2023/04/19 09:40:38;;;;;;;;;;;10.80;48.80;;;;;;4964631;28;19921;-82
2023/04/19 09:43:03;;;;;;;;;;;10.90;48.90;;;;;;4973887;28;19915;-84
2023/04/19 09:45:39;;;;;;;;;;;10.90;49.40;;;;;;4953173;28;19921;-85
2023/04/19 09:48:08;;;;;;;;;;;10.90;49.80;;;;;;4972150;28;19918;-85
2023/04/19 09:50:35;;;;;;;;;;;11.00;48.40;;;;;;4970405;28;19918;-85
2023/04/19 09:53:01;;;;;;;;;;;11.10;48.60;;;;;;4964239;28;19945;-83
2023/04/19 09:55:26;;;;;;;;;;;11.00;46.20;;;;;;4973868;28;19921;-84
2023/04/19 09:57:52;;;;;;;;;;;11.00;46.80;;;;;;4972635;28;20001;-85
2023/04/19 10:00:20;;;;;;;;;;;10.90;46.60;;;;;;4970507;28;19950;-83
2023/04/19 10:02:53;;;;;;;;;;;10.90;49.60;;;;;;4956772;28;19919;-83
2023/04/19 10:05:19;;;;;;;;;;;11.10;49.30;;;;;;4990561;28;19914;-83
2023/04/19 10:07:45;;;;;;;;;;;11.30;46.80;;;;;;4975937;28;19919;-84
2023/04/19 10:10:11;;;;;;;;;;;11.20;46.70;;;;;;4971364;28;19961;-85
2023/04/19 10:12:36;;;;;;;;;;;11.10;44.60;;;;;;4964349;28;19915;-84
2023/04/19 10:15:02;;;;;;;;;;;11.20;46.70;;;;;;4976725;28;20009;-84
2023/04/19 10:17:28;;;;;;;;;;;11.20;46.30;;;;;;4982235;28;19949;-84
2023/04/19 10:20:00;;;;;;;;;;;11.10;47.00;;;;;;4979291;28;19918;-84
2023/04/19 10:22:26;;;;;;;;;;;11.30;50.10;;;;;;4976217;28;19953;-84
2023/04/19 10:25:11;;;;;;;;;;;11.50;48.30;;;;;;4967674;28;19921;-84
2023/04/19 10:27:37;;;;;;;;;;;11.50;46.00;;;;;;4973414;28;19918;-84
2023/04/19 10:30:06;;;;;;;;;;;11.40;45.90;;;;;;4968971;28;20008;-81
2023/04/19 10:32:39;;;;;;;;;;;11.30;43.70;;;;;;4963208;28;19961;-83
2023/04/19 10:35:17;;;;;;;;;;;11.40;43.70;;;;;;4957731;28;20365;-86
2023/04/19 10:38:01;;;;;;;;;;;11.60;45.50;;;;;;4951094;28;19914;-83
2023/04/19 10:40:45;;;;;;;;;;;11.50;45.30;;;;;;4973319;28;19918;-84
2023/04/19 10:43:15;;;;;;;;;;;11.40;46.90;;;;;;4951959;28;19917;-84
2023/04/19 10:45:40;;;;;;;;;;;11.60;45.40;;;;;;4960352;28;19914;-83
2023/04/19 10:48:29;;;;;;;;;;;11.70;44.50;;;;;;4960696;28;19915;-85
2023/04/19 10:51:01;;;;;;;;;;;11.70;44.10;;;;;;4976968;28;19988;-82
2023/04/19 10:53:42;;;;;;;;;;;11.80;46.30;;;;;;4976635;28;19910;-81
2023/04/19 10:56:07;;;;;;;;;;;12.10;45.90;;;;;;4968060;28;19936;-89
2023/04/19 10:58:52;;;;;;;;;;;12.00;42.90;;;;;;4978333;28;20329;-84
2023/04/19 11:01:33;;;;;;;;;;;11.90;43.70;;;;;;4972219;28;19936;-82
2023/04/19 11:03:59;;;;;;;;;;;11.90;43.90;;;;;;4967931;28;20004;-82
2023/04/19 11:06:26;;;;;;;;;;;12.00;44.60;;;;;;4951348;29;20069;-82
2023/04/19 11:08:52;;;;;;;;;;;12.10;43.10;;;;;;4965568;28;19914;-84
2023/04/19 11:11:19;;;;;;;;;;;12.30;44.60;;;;;;4963822;28;20408;-85
2023/04/19 11:13:46;;;;;;;;;;;12.40;40.00;;;;;;4956733;28;19918;-86
2023/04/19 11:16:11;;;;;;;;;;;12.30;40.50;;;;;;4967311;28;19985;-83
2023/04/19 11:18:37;;;;;;;;;;;12.20;40.00;;;;;;4970989;28;20461;-83
2023/04/19 11:21:04;;;;;;;;;;;12.30;41.90;;;;;;4962549;28;20018;-83
2023/04/19 11:23:29;;;;;;;;;;;12.30;39.40;;;;;;4971544;28;19950;-83
2023/04/19 11:25:55;;;;;;;;;;;12.40;43.20;;;;;;4958149;28;20036;-85
2023/04/19 11:28:20;;;;;;;;;;;12.50;41.50;;;;;;4961921;28;19914;-84
2023/04/19 11:30:46;;;;;;;;;;;12.40;42.70;;;;;;4973687;28;20465;-84
2023/04/19 11:33:12;;;;;;;;;;;12.50;43.60;;;;;;4978040;28;19917;-83
2023/04/19 11:35:38;;;;;;;;;;;12.40;42.70;;;;;;4971151;28;19918;-85
2023/04/19 11:38:04;;;;;;;;;;;12.50;41.10;;;;;;4965813;28;19918;-83
2023/04/19 11:40:30;;;;;;;;;;;12.60;40.90;;;;;;4961379;28;19969;-84
2023/04/19 11:43:00;;;;;;;;;;;12.60;44.40;;;;;;4966686;28;19921;-84
2023/04/19 11:45:33;;;;;;;;;;;12.60;43.10;;;;;;4973710;28;20265;-85
2023/04/19 11:47:59;;;;;;;;;;;12.70;45.30;;;;;;4963705;28;20409;-83
2023/04/19 11:50:43;;;;;;;;;;;12.80;45.10;;;;;;4957627;28;19914;-82
2023/04/19 11:53:20;;;;;;;;;;;12.80;42.70;;;;;;4956040;28;19914;-83
2023/04/19 11:55:52;;;;;;;;;;;12.90;44.00;;;;;;4972629;28;19918;-82
2023/04/19 11:58:21;;;;;;;;;;;12.70;43.60;;;;;;4973858;28;19917;-83
2023/04/19 12:00:47;;;;;;;;;;;12.60;43.50;;;;;;4971021;28;20267;-82
2023/04/19 12:03:12;;;;;;;;;;;12.80;45.50;;;;;;4971114;28;19921;-83
2023/04/19 12:05:38;;;;;;;;;;;12.90;41.80;;;;;;4971474;28;20007;-85
2023/04/19 12:08:10;;;;;;;;;;;12.80;42.00;;;;;;4980494;28;19951;-82
2023/04/19 12:10:35;;;;;;;;;;;12.80;43.20;;;;;;4964311;28;20068;-83
2023/04/19 12:13:15;;;;;;;;;;;12.90;45.60;;;;;;4961964;28;20703;-84
2023/04/19 12:15:41;;;;;;;;;;;13.10;44.60;;;;;;4972801;28;19929;-84
2023/04/19 12:18:07;;;;;;;;;;;13.10;43.80;;;;;;4933415;28;19926;-85
2023/04/19 12:20:34;;;;;;;;;;;13.30;44.60;;;;;;4924746;28;19977;-84
2023/04/19 12:22:59;;;;;;;;;;;13.30;41.50;;;;;;4941109;28;19929;-84
2023/04/19 12:25:32;;;;;;;;;;;13.30;43.50;;;;;;4949348;28;19922;-85
2023/04/19 12:28:02;;;;;;;;;;;13.10;44.30;;;;;;4954332;28;19925;-83
2023/04/19 12:30:27;;;;;;;;;;;13.00;46.20;;;;;;4956969;28;19921;-83
2023/04/19 12:32:54;;;;;;;;;;;13.10;43.60;;;;;;4961928;28;19911;-84
2023/04/19 12:35:20;;;;;;;;;;;13.20;40.80;;;;;;4955606;28;19950;-82
2023/04/19 12:37:46;;;;;;;;;;;13.10;41.10;;;;;;4961638;28;20370;-84
2023/04/19 12:40:12;;;;;;;;;;;13.10;40.20;;;;;;4973804;28;19963;-83
2023/04/19 12:42:37;;;;;;;;;;;13.20;42.50;;;;;;4970052;28;20036;-82
2023/04/19 12:45:03;;;;;;;;;;;13.20;39.80;;;;;;4961995;28;19914;-82
2023/04/19 12:47:29;;;;;;;;;;;13.10;38.80;;;;;;4966716;28;19954;-84
2023/04/19 12:49:56;;;;;;;;;;;13.10;39.30;;;;;;4953945;28;20005;-83
2023/04/19 12:52:22;;;;;;;;;;;13.10;39.30;;;;;;4970687;28;19968;-83
2023/04/19 12:54:47;;;;;;;;;;;13.10;39.90;;;;;;4970820;28;19981;-83
2023/04/19 12:57:13;;;;;;;;;;;13.30;39.20;;;;;;4960737;28;20286;-83
2023/04/19 12:59:38;;;;;;;;;;;13.30;39.60;;;;;;4960441;28;19970;-83
2023/04/19 13:02:04;;;;;;;;;;;13.30;40.90;;;;;;4971290;28;19926;-82
2023/04/19 13:04:30;;;;;;;;;;;13.30;43.20;;;;;;4962597;28;20013;-84
2023/04/19 13:06:55;;;;;;;;;;;13.50;41.40;;;;;;4965069;28;20420;-83
2023/04/19 13:09:21;;;;;;;;;;;13.60;39.80;;;;;;4977607;28;19917;-81
2023/04/19 13:11:46;;;;;;;;;;;13.50;40.60;;;;;;4977268;28;19910;-82
2023/04/19 13:14:12;;;;;;;;;;;13.50;41.50;;;;;;4976462;28;20262;-83
2023/04/19 13:16:37;;;;;;;;;;;13.50;40.40;;;;;;4964284;28;19978;-83
2023/04/19 13:19:03;;;;;;;;;;;13.60;38.60;;;;;;4968453;28;19958;-83
2023/04/19 13:21:28;;;;;;;;;;;13.60;38.30;;;;;;4966482;28;19922;-83
2023/04/19 13:23:54;;;;;;;;;;;13.60;38.00;;;;;;4974435;28;19921;-83
2023/04/19 13:26:19;;;;;;;;;;;13.60;36.70;;;;;;4957460;28;19922;-84
2023/04/19 13:28:44;;;;;;;;;;;13.70;39.60;;;;;;4974227;28;19914;-84
2023/04/19 13:31:10;;;;;;;;;;;13.70;39.50;;;;;;4958601;28;19950;-83
2023/04/19 13:33:35;;;;;;;;;;;13.80;37.60;;;;;;4957222;29;20374;-84
2023/04/19 13:36:01;;;;;;;;;;;13.70;37.60;;;;;;4944169;28;19929;-83
2023/04/19 13:38:26;;;;;;;;;;;13.70;40.50;;;;;;4974712;28;19910;-83
2023/04/19 13:40:52;;;;;;;;;;;13.80;38.30;;;;;;4974538;28;19911;-84
2023/04/19 13:43:17;;;;;;;;;;;13.90;38.50;;;;;;4958624;28;19918;-84
2023/04/19 13:45:43;;;;;;;;;;;13.80;37.80;;;;;;4972591;28;19976;-86
2023/04/19 13:48:08;;;;;;;;;;;13.80;35.90;;;;;;4973326;28;19914;-83
2023/04/19 13:50:34;;;;;;;;;;;13.70;35.90;;;;;;4955749;28;19918;-84
2023/04/19 13:53:00;;;;;;;;;;;13.70;36.10;;;;;;4975466;28;19953;-84
2023/04/19 13:55:25;;;;;;;;;;;13.80;36.00;;;;;;4974305;28;19915;-84
2023/04/19 13:57:51;;;;;;;;;;;13.70;37.80;;;;;;4975516;28;19914;-83
2023/04/19 14:00:17;;;;;;;;;;;13.80;39.00;;;;;;4983864;28;19922;-84
2023/04/19 14:02:43;;;;;;;;;;;13.80;35.80;;;;;;4977004;28;19926;-84
2023/04/19 14:05:09;;;;;;;;;;;13.80;34.70;;;;;;4962536;29;19977;-84
2023/04/19 14:07:34;;;;;;;;;;;13.70;35.60;;;;;;4958819;28;20378;-86
2023/04/19 14:10:00;;;;;;;;;;;13.80;34.90;;;;;;4974487;28;19965;-85
2023/04/19 14:12:25;;;;;;;;;;;13.80;34.80;;;;;;4978112;28;19914;-83
2023/04/19 14:14:51;;;;;;;;;;;13.70;35.50;;;;;;4947763;29;19915;-83
2023/04/19 14:17:16;;;;;;;;;;;13.60;35.70;;;;;;4973841;28;19910;-83
2023/04/19 14:19:42;;;;;;;;;;;13.60;40.00;;;;;;4972627;28;19914;-86
2023/04/19 14:22:07;;;;;;;;;;;13.60;37.60;;;;;;4975172;28;19910;-85
2023/04/19 14:24:33;;;;;;;;;;;13.60;37.80;;;;;;4973270;28;20004;-85
2023/04/19 14:26:58;;;;;;;;;;;13.60;38.40;;;;;;4972478;28;19918;-86